Time;durP1;ratioP1;P1;durP2;ratioP2;P2;SDS_P1;SDS_P2;PMS_P1;PMS_P2;Temp;Humidity;BMP_temperature;BMP_pressure;BME280_temperature;BME280_humidity;BME280_pressure;Samples;Min_cycle;Max_cycle;Signal;HPM_P1;HPM_P2
2023/03/24 04:08:31;;;;;;;5.53;1.45;;;10.40;99.90;;;;;;6244943;23;20024;-78
2023/03/24 04:16:19;;;;;;;;;;;;;;;;;;;;;
2023/03/24 04:19:55;;;;;;;8.88;1.80;;;10.30;99.90;;;;;;6109915;23;20032;-76
2023/03/24 04:29:28;;;;;;;;;;;;;;;;;;;;;
2023/03/24 04:47:03;;;;;;;11.98;2.80;;;10.00;99.90;;;;;;6091543;23;20021;-77
2023/03/24 05:03:03;;;;;;;15.45;3.17;;;9.90;99.90;;;;;;6065661;23;20034;-78
2023/03/24 05:05:36;;;;;;;12.38;2.88;;;9.80;99.90;;;;;;6042164;23;20048;-78
2023/03/24 05:08:57;;;;;;;;;;;;;;;;;;;;;
2023/03/24 05:12:52;;;;;;;17.30;5.55;;;9.70;99.90;;;;;;6183952;22;20516;-80
2023/03/24 05:16:00;;;;;;;16.65;3.08;;;9.70;99.90;;;;;;6012634;23;20074;-79
2023/03/24 05:26:04;;;;;;;9.57;2.00;;;9.50;99.90;;;;;;6175806;23;20028;-78
2023/03/24 05:29:02;;;;;;;16.00;2.65;;;9.40;99.90;;;;;;6190232;23;20182;-78
2023/03/24 05:32:12;;;;;;;;;;;;;;;;;;;;;
2023/03/24 05:39:54;;;;;;;;;;;;;;;;;;;;;
2023/03/24 05:42:53;;;;;;;12.13;2.22;;;9.30;99.90;;;;;;5994631;23;20078;-78
2023/03/24 05:50:02;;;;;;;13.40;2.30;;;9.20;99.90;;;;;;6067259;23;20372;-78
2023/03/24 05:56:26;;;;;;;11.82;1.80;;;9.20;99.90;;;;;;6163699;23;20067;-78
2023/03/24 05:59:07;;;;;;;20.30;3.10;;;9.20;99.90;;;;;;6190367;23;20088;-78
2023/03/24 06:02:35;;;;;;;16.70;2.58;;;9.30;99.90;;;;;;6194847;23;20016;-78
2023/03/24 06:05:46;;;;;;;11.07;2.33;;;9.30;99.90;;;;;;6164323;23;20175;-79
2023/03/24 06:08:54;;;;;;;13.93;2.50;;;9.40;99.90;;;;;;6181687;23;20016;-78
2023/03/24 06:12:35;;;;;;;;;;;;;;;;;;;;;
2023/03/24 06:16:17;;;;;;;12.05;2.42;;;9.40;99.90;;;;;;5981327;24;20485;-77
2023/03/24 06:19:26;;;;;;;18.17;2.58;;;9.50;99.90;;;;;;5903797;24;20017;-78
2023/03/24 06:22:22;;;;;;;;;;;;;;;;;;;;;
2023/03/24 06:25:03;;;;;;;12.73;2.72;;;9.50;99.90;;;;;;6240976;23;20015;-78
2023/03/24 06:27:32;;;;;;;12.60;2.33;;;9.50;99.90;;;;;;6165320;23;20016;-76
2023/03/24 06:30:01;;;;;;;10.50;1.85;;;9.60;99.90;;;;;;6217740;23;20012;-77
2023/03/24 06:32:35;;;;;;;10.75;2.08;;;9.60;99.90;;;;;;6165256;23;20017;-76
2023/03/24 06:35:22;;;;;;;13.43;2.30;;;9.60;99.90;;;;;;6166166;23;20017;-78
2023/03/24 06:37:54;;;;;;;15.73;2.17;;;9.60;99.90;;;;;;6216878;23;20079;-78
2023/03/24 06:40:20;;;;;;;13.48;2.60;;;9.60;99.90;;;;;;6165515;23;20079;-79
2023/03/24 06:42:48;;;;;;;20.30;2.55;;;9.70;99.90;;;;;;6190339;23;20438;-77
2023/03/24 06:45:19;;;;;;;15.90;2.15;;;9.70;99.90;;;;;;6217398;23;20023;-77
2023/03/24 06:47:45;;;;;;;20.20;2.83;;;9.70;99.90;;;;;;6174394;23;20021;-74
2023/03/24 06:50:13;;;;;;;12.13;2.22;;;9.70;99.90;;;;;;6176975;23;20015;-76
2023/03/24 06:52:40;;;;;;;18.48;2.47;;;9.70;99.90;;;;;;6191745;23;20398;-79
2023/03/24 06:55:07;;;;;;;22.77;3.50;;;9.80;99.90;;;;;;6218314;23;20304;-78
2023/03/24 06:57:33;;;;;;;17.92;2.90;;;9.80;99.90;;;;;;6217347;23;20352;-77
2023/03/24 06:59:58;;;;;;;19.38;2.33;;;9.80;99.90;;;;;;6217577;23;20044;-76
2023/03/24 07:02:24;;;;;;;15.82;2.45;;;9.80;99.90;;;;;;6190612;23;20012;-79
2023/03/24 07:04:52;;;;;;;17.25;2.65;;;9.90;99.90;;;;;;6190530;23;20020;-77
2023/03/24 07:07:21;;;;;;;18.05;2.80;;;9.90;99.90;;;;;;6217033;23;20070;-77
2023/03/24 07:09:46;;;;;;;23.83;3.10;;;9.90;99.90;;;;;;6217234;23;20019;-77
2023/03/24 07:12:12;;;;;;;16.85;2.42;;;9.90;99.90;;;;;;6189749;23;20004;-76
2023/03/24 07:14:38;;;;;;;16.30;2.42;;;9.90;99.90;;;;;;6189978;23;20060;-77
2023/03/24 07:17:04;;;;;;;24.10;3.60;;;10.00;99.90;;;;;;6190191;23;20436;-77
2023/03/24 07:19:31;;;;;;;13.60;2.42;;;10.00;99.90;;;;;;6189846;23;20044;-77
2023/03/24 07:21:56;;;;;;;22.95;3.72;;;10.10;99.90;;;;;;6189871;23;20087;-76
2023/03/24 07:24:22;;;;;;;22.92;3.20;;;10.10;99.90;;;;;;6189849;23;20386;-76
2023/03/24 07:26:48;;;;;;;18.55;3.78;;;10.10;99.90;;;;;;6189976;23;20012;-77
2023/03/24 07:29:13;;;;;;;16.90;2.47;;;10.10;99.90;;;;;;6190099;23;20019;-77
2023/03/24 07:31:39;;;;;;;20.40;3.90;;;10.20;99.90;;;;;;6190102;23;20073;-77
2023/03/24 07:34:06;;;;;;;21.75;3.63;;;10.20;99.90;;;;;;6165226;23;20013;-77
2023/03/24 07:36:31;;;;;;;23.55;3.38;;;10.20;99.90;;;;;;6216931;23;20019;-78
2023/03/24 07:38:57;;;;;;;23.42;3.97;;;10.20;99.90;;;;;;6189457;23;20013;-78
2023/03/24 07:41:23;;;;;;;23.23;3.38;;;10.30;99.90;;;;;;6163991;23;20083;-77
2023/03/24 07:43:49;;;;;;;22.98;3.95;;;10.30;99.90;;;;;;6190002;23;20028;-77
2023/03/24 07:46:15;;;;;;;25.13;4.20;;;10.30;99.90;;;;;;6164794;23;20009;-78
2023/03/24 07:48:41;;;;;;;25.48;4.53;;;10.40;99.90;;;;;;6165297;23;20434;-78
2023/03/24 07:51:07;;;;;;;30.13;4.97;;;10.40;99.90;;;;;;6190152;23;20095;-76
2023/03/24 07:53:32;;;;;;;21.00;3.83;;;10.40;99.90;;;;;;6189633;23;20013;-77
2023/03/24 07:55:58;;;;;;;30.73;4.63;;;10.50;99.90;;;;;;6216180;23;20013;-77
2023/03/24 07:58:24;;;;;;;20.60;3.33;;;10.50;99.90;;;;;;6188380;23;20014;-77
2023/03/24 08:00:50;;;;;;;28.55;3.70;;;10.50;99.90;;;;;;6189301;23;20319;-76
2023/03/24 08:03:16;;;;;;;17.98;3.67;;;10.50;99.90;;;;;;6164548;23;20112;-77
2023/03/24 08:05:43;;;;;;;21.65;3.78;;;10.50;99.90;;;;;;6189772;23;20083;-77
2023/03/24 08:08:09;;;;;;;24.10;3.10;;;10.50;99.90;;;;;;6190077;23;20338;-78
2023/03/24 08:10:35;;;;;;;22.02;3.63;;;10.50;99.90;;;;;;6189121;23;20044;-76
2023/03/24 08:13:01;;;;;;;19.55;3.17;;;10.50;99.90;;;;;;6216147;23;20005;-77
2023/03/24 08:15:27;;;;;;;21.38;3.08;;;10.50;99.90;;;;;;6189299;23;20005;-78
2023/03/24 08:17:55;;;;;;;25.70;4.32;;;10.50;99.90;;;;;;6215805;23;20012;-76
2023/03/24 08:20:23;;;;;;;30.08;4.20;;;10.60;99.90;;;;;;6188527;23;20017;-75
2023/03/24 08:22:49;;;;;;;16.33;2.60;;;10.60;99.90;;;;;;6163944;23;20079;-76
2023/03/24 08:25:17;;;;;;;23.80;4.13;;;10.70;99.90;;;;;;6188680;23;20013;-76
2023/03/24 08:27:43;;;;;;;26.73;4.05;;;10.60;99.90;;;;;;6188646;23;20017;-78
2023/03/24 08:30:13;;;;;;;13.00;3.22;;;10.70;99.90;;;;;;6188624;23;20454;-76
2023/03/24 08:32:51;;;;;;;20.98;3.20;;;10.70;99.90;;;;;;6188539;23;20027;-78
2023/03/24 08:35:20;;;;;;;20.13;3.50;;;10.80;99.90;;;;;;6189467;23;20039;-76
2023/03/24 08:37:45;;;;;;;21.65;3.70;;;10.80;99.90;;;;;;6215794;23;20292;-76
2023/03/24 08:40:17;;;;;;;18.67;4.18;;;11.00;99.90;;;;;;6188555;23;20024;-76
2023/03/24 08:42:43;;;;;;;21.45;3.45;;;11.00;99.90;;;;;;6188047;23;20373;-76
2023/03/24 08:45:11;;;;;;;22.48;3.55;;;11.00;99.90;;;;;;6188194;23;20358;-76
2023/03/24 08:47:37;;;;;;;21.13;3.33;;;11.00;99.90;;;;;;6188512;23;20012;-78
2023/03/24 08:50:03;;;;;;;19.23;3.20;;;11.20;99.90;;;;;;6188481;23;20017;-78
2023/03/24 08:52:29;;;;;;;21.33;3.72;;;11.20;99.90;;;;;;6215165;23;20013;-76
2023/03/24 08:54:55;;;;;;;22.40;3.08;;;11.50;99.90;;;;;;6188603;23;20032;-75
2023/03/24 08:57:21;;;;;;;18.88;2.80;;;12.10;99.90;;;;;;6188500;23;20035;-75
2023/03/24 08:59:46;;;;;;;15.35;2.75;;;12.30;99.90;;;;;;6188497;23;20012;-74
2023/03/24 09:02:12;;;;;;;23.25;4.47;;;12.40;99.90;;;;;;6188386;23;20016;-76
2023/03/24 09:04:38;;;;;;;30.27;4.35;;;12.60;99.90;;;;;;6188879;23;20009;-75
2023/03/24 09:07:04;;;;;;;17.15;3.55;;;12.60;99.90;;;;;;6188270;23;20390;-76
2023/03/24 09:09:32;;;;;;;20.67;3.67;;;12.20;99.90;;;;;;6188713;23;20012;-75
2023/03/24 09:11:58;;;;;;;18.85;3.25;;;11.80;99.90;;;;;;6215074;23;20056;-75
2023/03/24 09:14:23;;;;;;;25.63;3.45;;;11.60;99.90;;;;;;6215926;23;20005;-74
2023/03/24 09:16:51;;;;;;;22.63;3.00;;;12.00;99.90;;;;;;6189629;23;20494;-75
2023/03/24 09:19:17;;;;;;;17.55;2.85;;;12.60;99.90;;;;;;6216449;23;20009;-74
2023/03/24 09:21:44;;;;;;;21.98;3.67;;;12.60;99.90;;;;;;6215825;23;20090;-75
2023/03/24 09:24:10;;;;;;;24.88;4.20;;;12.90;99.90;;;;;;6215867;23;20023;-75
2023/03/24 09:26:36;;;;;;;24.08;4.25;;;12.70;99.90;;;;;;6215436;23;20342;-75
2023/03/24 09:29:02;;;;;;;14.98;2.50;;;12.40;99.90;;;;;;6188191;23;20020;-73
2023/03/24 09:31:28;;;;;;;25.15;4.07;;;12.00;99.90;;;;;;6188214;23;20019;-73
2023/03/24 09:33:54;;;;;;;20.25;3.45;;;11.70;99.90;;;;;;6163930;23;20017;-73
2023/03/24 09:36:20;;;;;;;14.50;2.85;;;11.50;99.90;;;;;;6215220;23;20013;-74
2023/03/24 09:38:45;;;;;;;23.92;4.07;;;11.40;99.90;;;;;;6215378;23;20081;-74
2023/03/24 09:41:23;;;;;;;19.33;3.35;;;11.40;99.90;;;;;;6163443;23;20122;-74
2023/03/24 09:43:55;;;;;;;24.15;3.25;;;11.50;99.90;;;;;;6214976;23;20496;-75
2023/03/24 09:46:37;;;;;;;23.95;3.15;;;11.60;99.90;;;;;;6214959;23;20013;-76
2023/03/24 09:49:04;;;;;;;17.50;3.20;;;11.90;99.90;;;;;;6215219;23;20044;-74
2023/03/24 09:51:41;;;;;;;39.35;4.68;;;12.10;99.90;;;;;;6188105;23;20017;-74
2023/03/24 09:54:06;;;;;;;19.65;3.38;;;12.30;99.90;;;;;;6214752;23;20005;-73
2023/03/24 09:56:36;;;;;;;22.65;2.58;;;12.40;99.90;;;;;;6189368;23;20015;-74
2023/03/24 09:59:11;;;;;;;20.20;3.72;;;12.30;99.90;;;;;;6188043;23;20016;-74
2023/03/24 10:01:37;;;;;;;19.33;3.53;;;12.10;99.90;;;;;;6215286;23;20005;-73
2023/03/24 10:04:10;;;;;;;22.13;2.65;;;11.80;99.90;;;;;;6215776;23;20024;-74
2023/03/24 10:06:42;;;;;;;15.93;2.90;;;12.00;99.90;;;;;;6189970;23;20421;-75
2023/03/24 10:09:27;;;;;;;21.02;3.08;;;11.90;99.90;;;;;;6190618;23;20063;-75
2023/03/24 10:12:02;;;;;;;21.48;3.10;;;12.00;99.90;;;;;;6216390;23;20008;-74
2023/03/24 10:15:00;;;;;;;13.23;2.72;;;11.90;99.90;;;;;;6189990;23;20023;-75
2023/03/24 10:17:36;;;;;;;19.85;2.88;;;12.20;99.90;;;;;;6190868;23;20064;-74
2023/03/24 10:20:01;;;;;;;;;;;12.40;99.90;;;;;;6165562;23;20450;-75
2023/03/24 10:22:34;;;;;;;19.00;3.15;;;12.60;99.90;;;;;;6216287;23;19911;-74
2023/03/24 10:25:21;;;;;;;16.58;2.53;;;12.70;99.90;;;;;;6190744;23;20084;-74
2023/03/24 10:27:58;;;;;;;22.23;3.30;;;12.60;99.90;;;;;;6216680;23;20012;-74
2023/03/24 10:30:38;;;;;;;15.98;2.47;;;12.60;99.90;;;;;;6216293;23;20013;-73
2023/03/24 10:33:03;;;;;;;17.85;3.35;;;12.40;99.90;;;;;;6216452;23;20022;-74
2023/03/24 10:35:36;;;;;;;17.63;2.83;;;12.20;99.90;;;;;;6164964;23;20048;-73
2023/03/24 10:38:10;;;;;;;19.55;3.40;;;12.20;99.90;;;;;;6189689;23;20016;-75
2023/03/24 10:40:36;;;;;;;20.42;3.00;;;12.50;99.90;;;;;;6216799;23;20013;-75
2023/03/24 10:43:04;;;;;;;17.45;3.75;;;12.80;99.90;;;;;;6189934;23;20009;-74
2023/03/24 10:45:33;;;;;;;16.88;2.80;;;13.10;99.90;;;;;;6164812;23;20454;-74
2023/03/24 10:48:01;;;;;;;15.88;2.80;;;13.20;99.90;;;;;;6189450;23;20347;-75
2023/03/24 10:50:29;;;;;;;18.35;2.92;;;13.10;99.90;;;;;;6189457;23;20058;-75
2023/03/24 10:52:56;;;;;;;15.00;2.95;;;13.10;99.90;;;;;;6189475;23;20008;-74
2023/03/24 10:55:32;;;;;;;15.00;3.03;;;12.90;99.90;;;;;;6216154;23;20075;-75
2023/03/24 10:58:00;;;;;;;18.52;3.00;;;12.60;99.90;;;;;;6216091;23;20024;-75
2023/03/24 11:00:29;;;;;;;16.20;2.97;;;12.60;99.90;;;;;;6215938;23;20019;-75
2023/03/24 11:02:59;;;;;;;15.45;3.20;;;12.70;99.90;;;;;;6216543;23;20027;-75
2023/03/24 11:05:32;;;;;;;17.50;2.75;;;12.70;99.90;;;;;;6189432;23;20019;-75
2023/03/24 11:08:16;;;;;;;11.15;2.08;;;13.00;99.90;;;;;;6189449;23;20095;-75
2023/03/24 11:10:42;;;;;;;16.33;2.55;;;13.10;99.90;;;;;;6164402;23;20012;-76
2023/03/24 11:13:18;;;;;;;14.77;2.47;;;13.30;99.90;;;;;;6189178;23;20017;-76
2023/03/24 11:16:03;;;;;;;13.98;2.40;;;13.40;99.90;;;;;;6189682;23;20070;-76
2023/03/24 11:18:29;;;;;;;12.20;2.47;;;13.40;99.90;;;;;;6189186;23;20024;-76
2023/03/24 11:21:03;;;;;;;14.10;3.28;;;13.50;99.90;;;;;;6189234;23;20035;-76
2023/03/24 11:23:39;;;;;;;12.85;2.50;;;13.60;99.90;;;;;;6216166;23;20012;-77
2023/03/24 11:26:18;;;;;;;13.60;2.20;;;13.60;99.90;;;;;;6190279;23;20312;-74
2023/03/24 11:28:56;;;;;;;20.15;2.50;;;13.70;99.90;;;;;;6189201;23;20016;-76
2023/03/24 11:31:24;;;;;;;19.52;3.55;;;13.70;99.90;;;;;;6188987;23;20059;-77
2023/03/24 11:34:06;;;;;;;14.45;2.40;;;14.00;99.90;;;;;;6189241;23;20087;-75
2023/03/24 11:36:32;;;;;;;14.10;3.25;;;14.10;99.90;;;;;;6216162;23;20092;-76
2023/03/24 11:39:25;;;;;;;11.57;2.50;;;14.10;99.90;;;;;;6189125;23;20457;-78
2023/03/24 11:42:10;;;;;;;20.48;3.10;;;13.90;99.90;;;;;;6184049;23;20095;-75
2023/03/24 11:44:44;;;;;;;11.35;2.40;;;13.60;99.90;;;;;;6216173;23;20008;-75
2023/03/24 11:47:23;;;;;;;13.40;3.30;;;13.60;99.90;;;;;;6164264;23;20012;-76
2023/03/24 11:50:10;;;;;;;18.02;2.92;;;13.60;99.90;;;;;;6215617;23;20504;-75
2023/03/24 11:52:48;;;;;;;11.73;2.70;;;13.70;99.90;;;;;;6188856;23;20012;-76
2023/03/24 11:55:24;;;;;;;14.05;2.28;;;13.80;99.90;;;;;;6188882;23;20012;-76
2023/03/24 11:57:58;;;;;;;11.77;2.47;;;14.00;99.90;;;;;;6215558;23;20052;-75
2023/03/24 12:00:30;;;;;;;16.95;2.85;;;14.20;99.90;;;;;;6188769;23;20024;-76
2023/03/24 12:03:26;;;;;;;13.27;2.00;;;14.20;99.90;;;;;;6188997;23;20079;-76
2023/03/24 12:06:15;;;;;;;13.23;2.55;;;14.50;99.90;;;;;;6188930;23;20087;-74
2023/03/24 12:08:53;;;;;;;13.30;2.45;;;14.60;99.90;;;;;;6216660;23;20319;-74
2023/03/24 12:12:04;;;;;;;15.98;3.10;;;14.70;99.90;;;;;;6188738;23;20043;-75
2023/03/24 12:15:03;;;;;;;13.13;2.35;;;14.90;99.90;;;;;;6041638;23;20050;-75
2023/03/24 12:17:39;;;;;;;12.68;2.58;;;15.10;99.90;;;;;;6043653;23;20014;-72
2023/03/24 12:20:15;;;;;;;15.82;2.65;;;15.00;99.90;;;;;;6157210;23;20008;-73
2023/03/24 12:23:02;;;;;;;15.27;2.30;;;15.10;99.90;;;;;;6216583;23;20046;-74
2023/03/24 12:25:38;;;;;;;13.73;2.50;;;15.10;99.90;;;;;;6215631;23;20040;-73
2023/03/24 12:28:10;;;;;;;10.77;2.17;;;15.00;99.90;;;;;;6215434;23;20016;-75
2023/03/24 12:31:10;;;;;;;11.88;2.30;;;14.90;99.90;;;;;;6188984;23;20021;-76
2023/03/24 12:33:56;;;;;;;12.52;2.00;;;14.60;99.90;;;;;;6215608;23;20013;-77
2023/03/24 12:36:36;;;;;;;14.00;3.92;;;14.10;99.90;;;;;;6215898;23;20019;-76
2023/03/24 12:39:28;;;;;;;13.95;2.30;;;14.10;99.90;;;;;;6189381;23;20439;-75
2023/03/24 12:42:05;;;;;;;13.95;2.17;;;14.20;99.90;;;;;;6157298;23;20048;-76
2023/03/24 12:45:15;;;;;;;20.20;2.92;;;14.40;99.90;;;;;;6188800;23;20044;-76
2023/03/24 12:48:14;;;;;;;16.30;2.97;;;14.50;99.90;;;;;;6215606;23;20364;-75
2023/03/24 12:50:40;;;;;;;12.65;1.88;;;14.60;99.90;;;;;;6189406;23;20035;-76
2023/03/24 12:53:35;;;;;;;17.45;2.33;;;14.60;99.90;;;;;;6215957;23;20009;-77
2023/03/24 12:56:21;;;;;;;14.55;2.22;;;14.40;99.90;;;;;;6189303;23;20024;-74
2023/03/24 12:59:01;;;;;;;11.18;1.83;;;14.00;99.90;;;;;;6215586;23;20013;-77
2023/03/24 13:01:45;;;;;;;15.25;3.13;;;13.90;99.90;;;;;;6215311;23;20044;-75
2023/03/24 13:04:20;;;;;;;20.60;2.42;;;14.00;99.90;;;;;;6188437;23;20070;-75
2023/03/24 13:07:00;;;;;;;12.25;2.10;;;14.10;99.90;;;;;;6215481;23;20012;-75
2023/03/24 13:09:58;;;;;;;13.57;2.58;;;14.00;99.90;;;;;;6189091;23;20020;-76
2023/03/24 13:12:49;;;;;;;12.45;2.10;;;14.20;99.90;;;;;;6213375;23;20024;-76
2023/03/24 13:15:22;;;;;;;10.60;1.42;;;14.30;99.90;;;;;;6162450;23;20058;-76
2023/03/24 13:18:13;;;;;;;11.05;2.55;;;14.50;99.90;;;;;;6187908;23;20017;-75
2023/03/24 13:20:45;;;;;;;12.55;2.00;;;14.40;99.90;;;;;;6187512;23;20023;-76
2023/03/24 13:23:25;;;;;;;13.73;2.10;;;14.60;99.90;;;;;;6217243;23;20058;-76
2023/03/24 13:26:01;;;;;;;14.18;2.88;;;14.80;99.90;;;;;;6217206;23;20062;-76
2023/03/24 13:28:39;;;;;;;14.63;2.90;;;14.80;99.90;;;;;;6188592;23;20044;-74
2023/03/24 13:31:08;;;;;;;19.23;2.83;;;14.50;99.90;;;;;;6188398;23;20019;-75
2023/03/24 13:33:35;;;;;;;9.77;2.17;;;14.10;99.90;;;;;;6188476;23;20016;-76
2023/03/24 13:36:28;;;;;;;9.38;2.03;;;14.00;99.90;;;;;;6188273;23;20437;-76
2023/03/24 13:38:59;;;;;;;12.13;2.53;;;13.80;99.90;;;;;;6190496;23;20020;-76
2023/03/24 13:41:30;;;;;;;12.70;1.83;;;13.70;99.90;;;;;;6217102;23;20012;-76
2023/03/24 13:44:22;;;;;;;12.45;2.28;;;13.80;99.90;;;;;;6190393;23;20061;-76
2023/03/24 13:47:16;;;;;;;15.45;2.42;;;13.70;99.90;;;;;;6189428;23;20508;-76
2023/03/24 13:50:05;;;;;;;12.60;1.88;;;13.80;99.90;;;;;;6216751;23;20055;-78
2023/03/24 13:52:38;;;;;;;13.57;2.38;;;13.90;99.90;;;;;;6189242;23;20023;-76
2023/03/24 13:55:25;;;;;;;15.32;3.22;;;14.20;99.90;;;;;;6217326;23;20009;-77
2023/03/24 13:58:00;;;;;;;14.63;2.95;;;14.20;99.90;;;;;;6190306;23;20046;-76
2023/03/24 14:00:27;;;;;;;21.70;2.80;;;14.30;99.90;;;;;;6190200;23;20095;-76
2023/03/24 14:03:29;;;;;;;15.85;3.00;;;14.50;99.90;;;;;;6190229;23;20023;-76
2023/03/24 14:06:03;;;;;;;13.57;1.80;;;14.60;99.90;;;;;;6217088;23;20019;-77
2023/03/24 14:08:50;;;;;;;13.43;2.28;;;14.60;99.90;;;;;;6217117;23;20043;-75
2023/03/24 14:11:31;;;;;;;8.63;2.10;;;14.40;99.90;;;;;;6190241;23;20009;-76
2023/03/24 14:14:13;;;;;;;12.05;2.75;;;14.00;99.90;;;;;;6216564;23;20008;-74
2023/03/24 14:17:03;;;;;;;7.90;1.40;;;13.90;99.90;;;;;;6191017;23;20016;-76
2023/03/24 14:19:38;;;;;;;11.00;1.63;;;13.80;99.90;;;;;;6216894;23;20024;-76
2023/03/24 14:22:12;;;;;;;10.73;1.87;;;13.80;99.90;;;;;;6189983;23;20426;-76
2023/03/24 14:24:43;;;;;;;7.88;1.58;;;13.90;99.90;;;;;;6165246;23;20335;-76
2023/03/24 14:27:28;;;;;;;9.18;1.88;;;14.10;99.90;;;;;;6216755;23;20019;-77
2023/03/24 14:29:53;;;;;;;9.15;1.20;;;14.40;99.90;;;;;;6190269;23;20047;-75
2023/03/24 14:32:21;;;;;;;13.20;1.52;;;14.70;99.90;;;;;;6216943;23;20012;-76
2023/03/24 14:34:56;;;;;;;8.98;1.45;;;14.70;99.90;;;;;;6216965;23;20326;-77
2023/03/24 14:37:24;;;;;;;13.43;2.42;;;14.60;99.90;;;;;;6190814;23;20055;-75
2023/03/24 14:39:50;;;;;;;10.55;1.85;;;14.60;99.90;;;;;;6189769;23;20023;-75
2023/03/24 14:42:27;;;;;;;11.57;1.80;;;14.40;99.90;;;;;;6216538;23;20016;-76
2023/03/24 14:44:55;;;;;;;11.38;1.95;;;14.10;99.90;;;;;;6190109;23;20024;-76
2023/03/24 14:47:32;;;;;;;16.98;2.63;;;14.10;99.90;;;;;;6216939;23;20015;-76
2023/03/24 14:50:11;;;;;;;8.40;1.45;;;14.30;99.90;;;;;;6216492;23;20009;-75
2023/03/24 14:52:46;;;;;;;15.73;1.90;;;14.50;99.90;;;;;;6217075;23;20005;-76
2023/03/24 14:55:17;;;;;;;15.18;1.98;;;14.60;99.90;;;;;;6217614;23;20019;-74
2023/03/24 14:57:51;;;;;;;13.50;1.95;;;14.70;99.90;;;;;;6217385;23;20019;-78
2023/03/24 15:00:39;;;;;;;16.13;2.28;;;14.80;99.90;;;;;;6217475;23;20056;-75
2023/03/24 15:03:30;;;;;;;11.55;1.90;;;14.80;99.90;;;;;;6190473;23;20009;-77
2023/03/24 15:06:22;;;;;;;10.65;1.65;;;14.80;99.90;;;;;;6217757;23;20115;-76
2023/03/24 15:09:06;;;;;;;17.40;3.42;;;14.70;99.90;;;;;;6164427;23;20347;-77
2023/03/24 15:11:38;;;;;;;13.05;2.90;;;14.70;99.90;;;;;;6190240;23;20013;-77
2023/03/24 15:14:21;;;;;;;11.15;2.40;;;14.60;99.90;;;;;;6216852;23;20012;-76
2023/03/24 15:16:57;;;;;;;13.88;2.17;;;14.60;99.90;;;;;;6190533;23;20017;-75
2023/03/24 15:19:28;;;;;;;11.35;1.98;;;14.70;99.90;;;;;;6218614;23;20318;-75
2023/03/24 15:22:03;;;;;;;9.32;1.85;;;14.60;99.90;;;;;;6190131;23;20039;-77
2023/03/24 15:24:35;;;;;;;12.98;2.13;;;14.40;99.90;;;;;;6217323;23;20016;-77
2023/03/24 15:27:06;;;;;;;12.70;1.75;;;14.30;99.90;;;;;;6216952;23;20008;-77
2023/03/24 15:29:33;;;;;;;9.18;1.67;;;14.30;99.90;;;;;;6217293;23;20095;-77
2023/03/24 15:31:59;;;;;;;9.38;1.80;;;14.30;99.90;;;;;;6216561;23;20040;-77
2023/03/24 15:34:24;;;;;;;6.65;0.90;;;14.40;99.90;;;;;;6216951;23;20322;-76
2023/03/24 15:37:00;;;;;;;8.02;1.13;;;14.40;99.90;;;;;;6189303;23;20017;-78
2023/03/24 15:39:38;;;;;;;8.52;1.45;;;14.40;99.90;;;;;;6165374;23;20442;-76
2023/03/24 15:42:13;;;;;;;10.65;1.67;;;14.50;99.90;;;;;;6188527;23;20511;-76
2023/03/24 15:44:40;;;;;;;9.18;2.08;;;14.30;99.90;;;;;;6216243;23;20076;-78
2023/03/24 15:47:15;;;;;;;8.98;1.25;;;14.40;99.90;;;;;;6164947;23;20021;-76
2023/03/24 15:49:56;;;;;;;7.75;1.40;;;14.30;99.90;;;;;;6189441;23;20012;-76
2023/03/24 15:52:40;;;;;;;9.05;1.35;;;14.40;99.90;;;;;;6164826;23;20426;-77
2023/03/24 15:55:35;;;;;;;6.82;1.20;;;14.30;99.90;;;;;;6216158;23;20008;-75
2023/03/24 15:58:24;;;;;;;9.02;1.55;;;14.40;99.90;;;;;;6189615;23;20016;-76
2023/03/24 16:00:53;;;;;;;6.20;1.00;;;14.40;99.90;;;;;;6189533;23;20470;-75
2023/03/24 16:03:25;;;;;;;7.65;1.52;;;14.50;99.90;;;;;;6164769;23;20401;-75
2023/03/24 16:05:51;;;;;;;7.68;1.38;;;14.50;99.90;;;;;;6216603;23;20016;-76
2023/03/24 16:08:37;;;;;;;11.73;1.52;;;14.70;99.90;;;;;;6216197;23;20016;-77
2023/03/24 16:11:12;;;;;;;8.05;1.40;;;14.90;99.90;;;;;;6216491;23;20008;-75
2023/03/24 16:13:39;;;;;;;9.10;1.20;;;14.60;99.90;;;;;;6190018;23;20426;-76
2023/03/24 16:16:14;;;;;;;11.10;1.65;;;14.10;99.90;;;;;;6189710;23;20040;-75
2023/03/24 16:18:47;;;;;;;7.60;1.65;;;14.00;99.90;;;;;;6216268;23;20019;-77
2023/03/24 16:21:14;;;;;;;13.05;1.77;;;13.70;99.90;;;;;;6215989;23;20004;-77
2023/03/24 16:23:43;;;;;;;12.05;2.28;;;13.70;99.90;;;;;;6189361;23;20012;-77
2023/03/24 16:26:32;;;;;;;17.25;3.13;;;13.80;99.90;;;;;;6164538;23;20013;-76
2023/03/24 16:29:14;;;;;;;7.20;1.42;;;14.20;99.90;;;;;;6188482;23;20055;-75
2023/03/24 16:31:40;;;;;;;8.88;1.60;;;14.20;99.90;;;;;;6216544;23;20044;-77
2023/03/24 16:34:05;;;;;;;11.68;1.70;;;14.20;99.90;;;;;;6216203;23;20020;-76
2023/03/24 16:36:31;;;;;;;13.55;2.38;;;14.30;99.90;;;;;;6189389;23;20023;-76
2023/03/24 16:39:00;;;;;;;33.25;9.43;;;14.10;99.90;;;;;;6189977;23;20461;-76
2023/03/24 16:41:26;;;;;;;13.07;2.05;;;13.80;99.90;;;;;;6189654;23;20016;-75
2023/03/24 16:43:52;;;;;;;9.30;1.80;;;13.60;99.90;;;;;;6216768;23;20339;-77
2023/03/24 16:46:30;;;;;;;11.00;1.98;;;13.40;99.90;;;;;;6165253;23;20016;-76
2023/03/24 16:48:57;;;;;;;12.38;1.98;;;13.30;99.90;;;;;;6164253;23;20476;-76
2023/03/24 17:06:02;;;;;;;;;;;;;;;;;;;;;
2023/03/24 17:09:46;;;;;;;16.95;2.45;;;12.70;99.90;;;;;;6248633;22;20042;-77
2023/03/24 17:12:53;;;;;;;;;;;;;;;;;;;;;
2023/03/24 17:15:23;;;;;;;10.30;2.20;;;12.50;99.90;;;;;;6246143;22;20015;-75
2023/03/24 17:17:49;;;;;;;8.95;1.38;;;12.50;99.90;;;;;;6280475;22;20007;-76
2023/03/24 17:20:15;;;;;;;10.60;1.63;;;12.40;99.90;;;;;;6279730;22;20468;-78
2023/03/24 17:22:49;;;;;;;10.18;1.33;;;12.30;99.90;;;;;;6253652;22;20023;-77
2023/03/24 17:25:27;;;;;;;;;;;;;;;;;;;;;
2023/03/24 17:27:56;;;;;;;11.18;2.00;;;12.20;99.90;;;;;;6150973;22;20051;-75
2023/03/24 17:30:23;;;;;;;15.25;3.05;;;12.20;99.90;;;;;;6279650;22;20019;-77
2023/03/24 17:32:49;;;;;;;11.32;1.60;;;12.10;99.90;;;;;;6253066;22;20007;-76
2023/03/24 17:35:17;;;;;;;11.25;2.40;;;12.10;99.90;;;;;;6252483;22;20016;-75
2023/03/24 17:37:44;;;;;;;12.18;2.17;;;12.00;99.90;;;;;;6279923;22;20052;-74
2023/03/24 17:40:11;;;;;;;16.38;2.20;;;12.00;99.90;;;;;;6254823;22;20334;-77
2023/03/24 17:42:39;;;;;;;14.57;1.88;;;11.90;99.90;;;;;;6253625;22;20020;-78
2023/03/24 17:45:07;;;;;;;14.52;2.30;;;11.90;99.90;;;;;;6252831;22;20046;-78
2023/03/24 17:47:33;;;;;;;13.15;1.90;;;11.80;99.90;;;;;;6252770;22;20045;-75
2023/03/24 17:49:58;;;;;;;17.95;2.00;;;11.80;99.90;;;;;;6227409;22;20016;-76
2023/03/24 17:52:24;;;;;;;13.15;1.80;;;11.80;99.90;;;;;;6279995;22;20376;-75
2023/03/24 17:54:50;;;;;;;11.18;1.48;;;11.70;99.90;;;;;;6249967;22;20022;-75
2023/03/24 17:57:16;;;;;;;15.07;2.33;;;11.70;99.90;;;;;;6277885;22;20007;-75
2023/03/24 17:59:42;;;;;;;22.83;2.28;;;11.60;99.90;;;;;;6278389;22;20055;-75
2023/03/24 18:02:11;;;;;;;12.25;2.20;;;11.50;99.90;;;;;;6251284;22;20095;-75
2023/03/24 18:04:36;;;;;;;9.15;1.85;;;11.60;99.90;;;;;;6278840;22;20004;-75
2023/03/24 18:07:02;;;;;;;12.52;2.25;;;11.50;99.90;;;;;;6279448;22;20050;-74
2023/03/24 18:09:31;;;;;;;11.05;1.85;;;11.50;99.90;;;;;;6252102;22;20429;-75
2023/03/24 18:11:57;;;;;;;11.57;1.60;;;11.50;99.90;;;;;;6252478;22;20047;-76
2023/03/24 18:14:23;;;;;;;9.13;1.30;;;11.50;99.90;;;;;;6279548;22;20503;-74
2023/03/24 18:16:49;;;;;;;9.98;1.60;;;11.50;99.90;;;;;;6252838;22;20325;-76
2023/03/24 18:19:15;;;;;;;12.90;2.38;;;11.40;99.90;;;;;;6252495;22;20027;-76
2023/03/24 18:21:41;;;;;;;7.43;1.15;;;11.40;99.90;;;;;;6280089;22;20014;-77
2023/03/24 18:24:08;;;;;;;8.05;1.60;;;11.40;99.90;;;;;;6251635;22;20073;-78
2023/03/24 18:26:33;;;;;;;6.63;1.17;;;11.40;99.90;;;;;;6277957;22;20365;-76
2023/03/24 18:28:59;;;;;;;9.18;1.25;;;11.30;99.90;;;;;;6280736;22;20008;-76
2023/03/24 18:31:26;;;;;;;13.98;1.55;;;11.30;99.90;;;;;;6253489;22;20015;-76
2023/03/24 18:33:53;;;;;;;9.95;1.75;;;11.30;99.90;;;;;;6250991;22;20019;-77
2023/03/24 18:36:25;;;;;;;6.30;1.00;;;11.30;99.90;;;;;;6278462;22;20004;-77
2023/03/24 18:38:55;;;;;;;13.85;1.73;;;11.20;99.90;;;;;;6225366;22;20469;-76
2023/03/24 18:48:46;;;;;;;10.00;1.92;;;11.20;99.90;;;;;;6189444;23;20159;-77
2023/03/24 18:59:27;;;;;;;9.63;1.65;;;11.20;99.90;;;;;;6247043;22;20024;-78
2023/03/24 19:01:53;;;;;;;10.45;1.88;;;11.10;99.90;;;;;;6219483;23;20326;-75
2023/03/24 19:04:18;;;;;;;12.38;1.60;;;11.10;99.90;;;;;;6247015;23;20012;-75
2023/03/24 19:06:44;;;;;;;12.38;1.90;;;11.10;99.90;;;;;;6220965;23;20385;-75
2023/03/24 19:09:11;;;;;;;11.93;1.77;;;11.00;99.90;;;;;;6219842;23;20383;-75
2023/03/24 19:11:38;;;;;;;11.35;2.33;;;11.00;99.90;;;;;;6219270;23;20129;-76